createdAt,value
2017-10-17T00:00:49.436Z,92.60
2017-10-17T00:03:17.569Z,92.80
2017-10-17T00:05:45.667Z,93.00
2017-10-17T00:08:13.748Z,93.10
2017-10-17T00:10:41.963Z,93.10
2017-10-17T00:13:10.128Z,93.20
2017-10-17T00:15:38.251Z,93.30
2017-10-17T00:18:06.492Z,93.10
2017-10-17T00:20:35.360Z,93.30
2017-10-17T00:23:04.210Z,93.70
2017-10-17T00:25:32.352Z,93.40
2017-10-17T00:28:00.459Z,93.40
2017-10-17T00:30:31.099Z,93.40
2017-10-17T00:33:01.611Z,93.60
2017-10-17T00:35:38.432Z,93.50
2017-10-17T00:38:07.517Z,93.60
2017-10-17T00:40:35.675Z,93.50
2017-10-17T00:43:03.768Z,93.60
2017-10-17T00:45:31.920Z,93.50
2017-10-17T00:48:00.063Z,93.50
2017-10-17T00:50:28.155Z,93.60
2017-10-17T00:52:56.351Z,93.60
2017-10-17T00:55:24.472Z,93.40
2017-10-17T00:57:52.571Z,93.60
2017-10-17T01:00:20.728Z,93.40
2017-10-17T01:02:48.818Z,93.70
2017-10-17T01:05:16.983Z,93.80
2017-10-17T01:07:45.083Z,93.60
2017-10-17T01:10:13.224Z,93.70
2017-10-17T01:12:41.340Z,94.10
2017-10-17T01:15:09.471Z,93.70
2017-10-17T01:17:37.643Z,93.90
2017-10-17T01:20:07.554Z,93.80
2017-10-17T01:22:35.736Z,93.40
2017-10-17T01:25:03.855Z,93.50
2017-10-17T01:27:32.924Z,93.80
2017-10-17T01:30:01.052Z,93.80
2017-10-17T01:32:30.096Z,93.80
2017-10-17T01:34:58.176Z,93.70
2017-10-17T01:37:27.323Z,94.00
2017-10-17T01:40:19.912Z,93.80
2017-10-17T01:42:48.077Z,93.70
2017-10-17T01:45:17.716Z,93.80
2017-10-17T01:47:45.810Z,94.20
2017-10-17T01:50:25.538Z,94.00
2017-10-17T01:53:15.240Z,93.90
2017-10-17T01:55:43.359Z,94.20
2017-10-17T01:58:11.476Z,93.70
2017-10-17T02:00:40.345Z,93.80
2017-10-17T02:03:08.443Z,93.80
2017-10-17T02:05:37.372Z,94.00
2017-10-17T02:08:22.189Z,94.00
2017-10-17T02:10:56.831Z,94.20
2017-10-17T02:13:24.931Z,94.20
2017-10-17T02:15:53.023Z,94.30
2017-10-17T02:18:27.646Z,94.10
2017-10-17T02:20:58.260Z,94.20
2017-10-17T02:23:28.093Z,94.00
2017-10-17T02:25:59.692Z,94.10
2017-10-17T02:28:34.995Z,94.10
2017-10-17T02:31:03.275Z,94.20
2017-10-17T02:33:32.253Z,94.40
2017-10-17T02:36:00.412Z,94.00
2017-10-17T02:38:28.545Z,94.30
2017-10-17T02:40:59.215Z,94.10
2017-10-17T02:43:30.967Z,94.40
2017-10-17T02:46:02.035Z,94.10
2017-10-17T02:48:38.408Z,94.30
2017-10-17T02:51:06.589Z,94.10
2017-10-17T02:53:34.762Z,94.40
2017-10-17T02:56:02.923Z,94.40
2017-10-17T02:58:31.040Z,94.20
2017-10-17T03:00:59.147Z,94.80
2017-10-17T03:03:33.880Z,94.20
2017-10-17T03:06:01.964Z,94.30
2017-10-17T03:08:30.103Z,94.30
2017-10-17T03:10:58.267Z,94.10
2017-10-17T03:13:37.727Z,94.70
2017-10-17T03:16:06.800Z,94.70
2017-10-17T03:18:35.664Z,94.30
2017-10-17T03:21:15.070Z,94.30
2017-10-17T03:23:50.805Z,94.30
2017-10-17T03:26:18.960Z,94.40
2017-10-17T03:28:50.245Z,94.30
2017-10-17T03:31:23.280Z,94.50
2017-10-17T03:33:55.903Z,94.40
2017-10-17T03:36:35.373Z,94.40
2017-10-17T03:39:04.951Z,94.30
2017-10-17T03:41:34.922Z,94.30
2017-10-17T03:47:57.713Z,94.30
2017-10-17T03:50:29.582Z,94.20
2017-10-17T03:56:24.898Z,94.60
2017-10-17T03:59:06.693Z,94.60
2017-10-17T04:01:34.840Z,94.40
2017-10-17T04:04:11.252Z,94.50
2017-10-17T04:06:49.692Z,95.00
2017-10-17T04:09:17.791Z,94.50
2017-10-17T04:11:45.919Z,95.00
2017-10-17T04:14:22.927Z,94.70
2017-10-17T04:17:03.546Z,95.00
2017-10-17T04:19:47.083Z,94.70
2017-10-17T04:25:24.508Z,94.90
2017-10-17T04:31:06.348Z,94.60
2017-10-17T04:33:54.824Z,95.20
2017-10-17T04:39:20.721Z,94.90
2017-10-17T04:45:49.214Z,94.90
2017-10-17T04:52:03.465Z,95.00
2017-10-17T04:54:50.619Z,95.40
2017-10-17T04:57:22.451Z,95.40
2017-10-17T05:00:14.987Z,94.80
2017-10-17T05:02:58.300Z,95.10
2017-10-17T05:05:32.579Z,95.10
2017-10-17T05:11:29.383Z,95.20
2017-10-17T05:14:09.960Z,95.10
2017-10-17T05:16:49.280Z,95.60
2017-10-17T05:19:55.683Z,95.50
2017-10-17T05:22:38.466Z,95.40
2017-10-17T05:25:24.114Z,95.30
2017-10-17T05:31:31.669Z,95.40
2017-10-17T05:34:10.919Z,95.50
2017-10-17T05:36:51.639Z,95.60
2017-10-17T05:39:19.773Z,95.20
2017-10-17T05:41:48.012Z,95.10
2017-10-17T05:47:42.260Z,95.40
2017-10-17T05:50:11.093Z,95.80
2017-10-17T05:52:44.604Z,95.60
2017-10-17T05:55:12.680Z,96.00
2017-10-17T05:57:40.778Z,96.10
2017-10-17T06:00:08.944Z,95.80
2017-10-17T06:02:37.022Z,95.80
2017-10-17T06:05:05.144Z,95.80
2017-10-17T06:07:33.244Z,95.50
2017-10-17T06:10:01.327Z,95.30
2017-10-17T06:12:29.447Z,95.40
2017-10-17T06:14:57.542Z,95.70
2017-10-17T06:17:25.663Z,95.80
2017-10-17T06:19:53.758Z,95.70
2017-10-17T06:22:21.948Z,95.70
2017-10-17T06:24:50.080Z,95.10
2017-10-17T06:27:18.223Z,95.40
2017-10-17T06:29:46.327Z,95.70
2017-10-17T06:32:15.187Z,95.40
2017-10-17T06:34:43.283Z,95.40
2017-10-17T06:37:12.232Z,95.80
2017-10-17T06:39:40.331Z,96.10
2017-10-17T06:42:08.423Z,95.70
2017-10-17T06:44:36.560Z,95.40
2017-10-17T06:47:04.655Z,95.40
2017-10-17T06:49:32.744Z,95.60
2017-10-17T06:52:01.615Z,95.50
2017-10-17T06:54:29.777Z,95.80
2017-10-17T06:56:57.888Z,95.50
2017-10-17T06:59:26.743Z,95.90
2017-10-17T07:01:54.868Z,95.90
2017-10-17T07:04:22.971Z,95.60
2017-10-17T07:06:51.078Z,95.60
2017-10-17T07:09:19.197Z,95.50
2017-10-17T07:11:47.291Z,95.70
2017-10-17T07:14:15.659Z,95.40
2017-10-17T07:16:43.756Z,95.40
2017-10-17T07:19:11.900Z,95.60
2017-10-17T07:21:40.084Z,95.20
2017-10-17T07:24:08.181Z,95.50
2017-10-17T07:26:36.289Z,95.50
2017-10-17T07:29:04.392Z,95.50
2017-10-17T07:31:32.525Z,95.10
2017-10-17T07:34:01.372Z,95.30
2017-10-17T07:36:29.748Z,95.30
2017-10-17T07:38:57.836Z,95.60
2017-10-17T07:41:25.968Z,95.10
2017-10-17T07:43:54.072Z,95.40
2017-10-17T07:46:22.172Z,95.50
2017-10-17T07:48:50.283Z,95.30
2017-10-17T07:51:18.375Z,95.50
2017-10-17T07:53:46.483Z,95.40
2017-10-17T07:56:14.609Z,95.30
2017-10-17T07:58:42.705Z,95.40
2017-10-17T08:01:10.805Z,95.40
2017-10-17T08:03:38.956Z,95.50
2017-10-17T08:06:07.040Z,95.40
2017-10-17T08:08:35.151Z,95.30
2017-10-17T08:11:03.240Z,95.40
2017-10-17T08:13:31.352Z,95.30
2017-10-17T08:15:59.454Z,95.30
2017-10-17T08:18:29.305Z,95.50
2017-10-17T08:20:57.419Z,95.50
2017-10-17T08:23:25.518Z,95.40
2017-10-17T08:25:54.439Z,95.30
2017-10-17T08:28:22.551Z,95.40
2017-10-17T08:30:50.640Z,95.00
2017-10-17T08:33:18.756Z,95.10
2017-10-17T08:35:46.843Z,94.90
2017-10-17T08:38:14.956Z,95.20
2017-10-17T08:40:43.047Z,94.80
2017-10-17T08:43:11.153Z,94.70
2017-10-17T08:45:39.244Z,94.60
2017-10-17T08:48:07.328Z,94.60
2017-10-17T08:50:35.438Z,94.50
2017-10-17T08:53:03.560Z,94.30
2017-10-17T08:55:32.690Z,94.20
2017-10-17T08:58:01.543Z,94.10
2017-10-17T09:00:29.647Z,94.10
2017-10-17T09:02:57.731Z,94.20
2017-10-17T09:05:25.850Z,94.10
2017-10-17T09:07:53.964Z,94.20
2017-10-17T09:10:22.044Z,94.20
2017-10-17T09:12:50.253Z,94.20
2017-10-17T09:15:18.439Z,94.20
2017-10-17T09:17:46.522Z,94.10
2017-10-17T09:20:15.099Z,94.20
2017-10-17T09:22:43.189Z,94.00
2017-10-17T09:25:11.300Z,94.10
2017-10-17T09:27:40.164Z,93.80
2017-10-17T09:30:08.270Z,93.80
2017-10-17T09:32:37.272Z,93.70
2017-10-17T09:35:05.361Z,93.80
2017-10-17T09:37:33.472Z,93.90
2017-10-17T09:40:01.565Z,93.90
2017-10-17T09:42:29.743Z,93.90
2017-10-17T09:44:57.869Z,93.80
2017-10-17T09:47:26.996Z,93.50
2017-10-17T09:49:55.079Z,93.40
2017-10-17T09:52:23.227Z,93.50
2017-10-17T09:54:51.323Z,93.80
2017-10-17T09:57:20.199Z,93.50
2017-10-17T09:59:48.309Z,93.50
2017-10-17T10:02:16.415Z,93.40
2017-10-17T10:04:44.517Z,93.30
2017-10-17T10:07:12.624Z,93.60
2017-10-17T10:09:40.742Z,93.40
2017-10-17T10:12:08.860Z,93.40
2017-10-17T10:14:36.962Z,93.70
2017-10-17T10:17:05.064Z,93.40
2017-10-17T10:19:33.164Z,93.50
2017-10-17T10:22:01.283Z,93.20
2017-10-17T10:24:29.419Z,93.30
2017-10-17T10:26:57.552Z,93.20
2017-10-17T10:29:25.655Z,93.30
2017-10-17T10:31:54.528Z,93.30
2017-10-17T10:34:22.640Z,93.10
2017-10-17T10:36:50.731Z,93.10
2017-10-17T10:39:18.831Z,93.20
2017-10-17T10:41:46.956Z,93.00
2017-10-17T10:44:15.177Z,93.10
2017-10-17T10:46:43.275Z,93.20
2017-10-17T10:49:11.372Z,93.20
2017-10-17T10:51:40.221Z,93.00
2017-10-17T10:54:08.332Z,93.00
2017-10-17T10:56:37.180Z,93.30
2017-10-17T10:59:05.297Z,93.30
2017-10-17T11:01:33.373Z,93.20
2017-10-17T11:04:02.240Z,93.20
2017-10-17T11:06:30.374Z,93.20
2017-10-17T11:08:58.477Z,92.60
2017-10-17T11:11:26.571Z,92.70
2017-10-17T11:13:55.431Z,93.10
2017-10-17T11:16:23.531Z,93.10
2017-10-17T11:18:52.397Z,92.80
2017-10-17T11:21:20.483Z,92.80
2017-10-17T11:23:48.608Z,92.90
2017-10-17T11:26:16.705Z,93.10
2017-10-17T11:28:44.820Z,92.60
2017-10-17T11:31:13.683Z,92.90
2017-10-17T11:33:41.779Z,92.80
2017-10-17T11:36:10.989Z,92.80
2017-10-17T11:38:39.103Z,92.60
2017-10-17T11:41:25.319Z,92.50
2017-10-17T11:43:53.428Z,92.30
2017-10-17T11:46:21.552Z,92.50
2017-10-17T11:48:49.664Z,92.30
2017-10-17T11:51:17.829Z,92.50
2017-10-17T11:53:45.923Z,92.40
2017-10-17T11:56:14.032Z,91.60
2017-10-17T11:58:42.150Z,91.60
2017-10-17T12:01:10.254Z,92.20
2017-10-17T12:03:38.326Z,92.20
2017-10-17T12:06:06.420Z,92.30
2017-10-17T12:08:35.414Z,92.10
2017-10-17T12:11:03.544Z,92.10
2017-10-17T12:13:31.650Z,92.20
2017-10-17T12:15:59.745Z,92.10
2017-10-17T12:18:27.865Z,92.50
2017-10-17T12:20:55.978Z,92.10
2017-10-17T12:23:24.067Z,92.20
2017-10-17T12:25:52.180Z,92.10
2017-10-17T12:28:21.034Z,92.10
2017-10-17T12:30:49.131Z,92.10
2017-10-17T12:33:17.310Z,91.80
2017-10-17T12:35:46.163Z,92.20
2017-10-17T12:38:14.291Z,92.20
2017-10-17T12:40:42.400Z,92.10
2017-10-17T12:43:10.734Z,92.00
2017-10-17T12:45:38.848Z,91.60
2017-10-17T12:48:08.000Z,91.60
2017-10-17T12:50:36.133Z,91.40
2017-10-17T12:53:05.165Z,90.90
2017-10-17T12:55:33.295Z,91.50
2017-10-17T12:58:02.444Z,91.30
2017-10-17T13:00:30.536Z,91.40
2017-10-17T13:02:59.432Z,90.70
2017-10-17T13:05:28.448Z,90.70
2017-10-17T13:07:57.610Z,90.80
2017-10-17T13:10:25.719Z,90.70
2017-10-17T13:12:54.731Z,90.50
2017-10-17T13:15:22.850Z,90.60
2017-10-17T13:17:50.960Z,90.20
2017-10-17T13:20:19.075Z,90.00
2017-10-17T13:22:47.160Z,90.10
2017-10-17T13:25:15.252Z,90.50
2017-10-17T13:27:43.381Z,90.70
2017-10-17T13:30:11.478Z,90.50
2017-10-17T13:32:39.569Z,90.70
2017-10-17T13:35:07.693Z,90.60
2017-10-17T13:37:35.793Z,90.70
2017-10-17T13:40:03.883Z,90.80
2017-10-17T13:42:32.008Z,90.70
2017-10-17T13:45:00.101Z,90.50
2017-10-17T13:47:28.231Z,90.90
2017-10-17T13:49:56.320Z,90.80
2017-10-17T13:52:24.432Z,90.90
2017-10-17T13:54:52.514Z,91.40
2017-10-17T13:57:21.705Z,91.40
2017-10-17T13:59:49.823Z,91.40
2017-10-17T14:02:17.912Z,91.30
2017-10-17T14:04:46.057Z,91.30
2017-10-17T14:07:14.167Z,91.40
2017-10-17T14:09:42.279Z,91.50
2017-10-17T14:12:11.427Z,91.70
2017-10-17T14:14:39.577Z,91.50
2017-10-17T14:17:07.677Z,92.00
2017-10-17T14:19:35.805Z,91.90
2017-10-17T14:22:03.909Z,91.90
2017-10-17T14:24:32.040Z,91.90
2017-10-17T14:27:00.143Z,91.90
2017-10-17T14:29:28.260Z,92.10
2017-10-17T14:31:56.397Z,92.20
2017-10-17T14:34:24.512Z,92.20
2017-10-17T14:36:52.631Z,91.90
2017-10-17T14:39:20.743Z,92.10
2017-10-17T14:41:48.882Z,92.10
2017-10-17T14:44:18.091Z,92.10
2017-10-17T14:46:46.165Z,92.20
2017-10-17T14:49:14.271Z,92.60
2017-10-17T14:51:43.150Z,92.70
2017-10-17T14:54:12.087Z,92.70
2017-10-17T14:56:40.234Z,92.70
2017-10-17T14:59:08.352Z,92.50
2017-10-17T15:01:36.469Z,92.70
2017-10-17T15:04:05.352Z,92.90
2017-10-17T15:06:34.232Z,93.00
2017-10-17T15:09:02.328Z,93.10
2017-10-17T15:11:30.466Z,93.10
2017-10-17T15:13:58.555Z,93.10
2017-10-17T15:16:26.659Z,92.70
2017-10-17T15:18:54.768Z,93.00
2017-10-17T15:21:22.869Z,93.20
2017-10-17T15:23:51.013Z,93.40
2017-10-17T15:26:19.120Z,93.40
2017-10-17T15:28:47.267Z,93.70
2017-10-17T15:31:16.287Z,93.60
2017-10-17T15:33:44.396Z,93.70
2017-10-17T15:36:12.516Z,94.10
2017-10-17T15:38:40.658Z,93.80
2017-10-17T15:41:08.731Z,94.10
2017-10-17T15:43:36.852Z,94.10
2017-10-17T15:46:04.979Z,94.00
2017-10-17T15:48:33.075Z,94.20
2017-10-17T15:51:01.166Z,94.10
2017-10-17T15:53:30.059Z,94.30
2017-10-17T15:55:58.915Z,94.90
2017-10-17T15:58:27.045Z,94.60
2017-10-17T16:00:55.135Z,94.80
2017-10-17T16:03:23.232Z,94.90
2017-10-17T16:05:51.349Z,95.00
2017-10-17T16:08:20.204Z,95.20
2017-10-17T16:10:48.348Z,95.10
2017-10-17T16:13:16.455Z,95.20
2017-10-17T16:15:45.478Z,95.30
2017-10-17T16:18:14.368Z,95.60
2017-10-17T16:20:43.234Z,95.70
2017-10-17T16:23:11.341Z,95.70
2017-10-17T16:25:39.469Z,95.70
2017-10-17T16:28:08.600Z,95.90
2017-10-17T16:30:36.701Z,95.90
2017-10-17T16:33:04.807Z,96.00
2017-10-17T16:35:33.984Z,96.20
2017-10-17T16:38:02.097Z,96.30
2017-10-17T16:40:30.209Z,96.40
2017-10-17T16:42:58.300Z,96.40
2017-10-17T16:45:27.343Z,96.50
2017-10-17T16:47:55.468Z,96.70
2017-10-17T16:50:23.587Z,96.70
2017-10-17T16:52:51.707Z,96.60
2017-10-17T16:55:19.813Z,96.70
2017-10-17T16:57:47.909Z,96.60
2017-10-17T17:00:16.008Z,96.80
2017-10-17T17:02:44.144Z,96.70
2017-10-17T17:05:12.271Z,96.50
2017-10-17T17:07:40.368Z,96.80
2017-10-17T17:10:08.460Z,96.60
2017-10-17T17:12:36.602Z,96.70
2017-10-17T17:15:04.687Z,96.80
2017-10-17T17:17:32.788Z,96.50
2017-10-17T17:20:00.930Z,96.40
2017-10-17T17:22:29.035Z,96.40
2017-10-17T17:24:58.838Z,96.70
2017-10-17T17:27:26.928Z,96.60
2017-10-17T17:29:55.810Z,96.70
2017-10-17T17:32:23.932Z,96.70
2017-10-17T17:34:52.039Z,96.40
2017-10-17T17:37:20.175Z,96.60
2017-10-17T17:39:49.493Z,96.80
2017-10-17T17:42:17.592Z,96.90
2017-10-17T17:44:45.708Z,96.90
2017-10-17T17:47:13.819Z,96.80
2017-10-17T17:49:41.941Z,96.90
2017-10-17T17:52:10.043Z,97.10
2017-10-17T17:54:38.155Z,96.60
2017-10-17T17:57:06.319Z,96.80
2017-10-17T17:59:34.432Z,96.80
2017-10-17T18:02:02.563Z,96.60
2017-10-17T18:04:30.671Z,96.70
2017-10-17T18:06:58.814Z,96.60
2017-10-17T18:09:26.899Z,96.40
2017-10-17T18:11:55.015Z,96.40
2017-10-17T18:14:23.113Z,96.40
2017-10-17T18:16:51.216Z,96.50
2017-10-17T18:19:19.320Z,96.60
2017-10-17T18:21:47.418Z,96.40
2017-10-17T18:24:15.496Z,96.60
2017-10-17T18:26:43.620Z,96.80
2017-10-17T18:29:12.545Z,96.90
2017-10-17T18:31:40.735Z,96.90
2017-10-17T18:34:08.843Z,97.00
2017-10-17T18:36:37.555Z,96.90
2017-10-17T18:39:05.688Z,96.60
2017-10-17T18:41:34.844Z,96.80
2017-10-17T18:44:02.961Z,96.70
2017-10-17T18:46:31.080Z,96.80
2017-10-17T18:48:59.180Z,96.80
2017-10-17T18:51:27.281Z,96.80
2017-10-17T18:53:55.412Z,96.80
2017-10-17T18:56:23.508Z,96.80
2017-10-17T18:58:51.674Z,97.20
2017-10-17T19:01:19.758Z,96.90
2017-10-17T19:03:47.887Z,96.90
2017-10-17T19:06:16.025Z,96.60
2017-10-17T19:08:44.249Z,96.30
2017-10-17T19:11:12.408Z,96.70
2017-10-17T19:13:40.520Z,96.20
2017-10-17T19:16:08.612Z,96.20
2017-10-17T19:18:36.836Z,96.40
2017-10-17T19:21:04.943Z,96.60
2017-10-17T19:23:33.048Z,96.60
2017-10-17T19:26:01.152Z,96.30
2017-10-17T19:28:29.320Z,96.40
2017-10-17T19:30:57.520Z,96.40
2017-10-17T19:33:25.611Z,96.30
2017-10-17T19:35:53.769Z,96.40
2017-10-17T19:38:21.859Z,96.80
2017-10-17T19:40:49.952Z,96.70
2017-10-17T19:43:18.099Z,96.70
2017-10-17T19:45:46.246Z,96.70
2017-10-17T19:48:14.393Z,96.50
2017-10-17T19:50:43.244Z,96.30
2017-10-17T19:53:11.357Z,96.20
2017-10-17T19:55:39.455Z,96.50
2017-10-17T19:58:07.576Z,96.40
2017-10-17T20:00:35.698Z,96.40
2017-10-17T20:03:03.844Z,96.10
2017-10-17T20:05:32.712Z,96.40
2017-10-17T20:08:00.807Z,96.10
2017-10-17T20:10:29.697Z,96.50
2017-10-17T20:12:58.581Z,96.70
2017-10-17T20:15:27.456Z,96.60
2017-10-17T20:17:55.585Z,96.60
2017-10-17T20:20:23.708Z,96.30
2017-10-17T20:22:51.798Z,96.60
2017-10-17T20:25:19.926Z,96.60
2017-10-17T20:27:48.063Z,96.50
2017-10-17T20:30:16.171Z,96.70
2017-10-17T20:32:45.204Z,96.50
2017-10-17T20:35:13.369Z,96.60
2017-10-17T20:37:41.487Z,96.50
2017-10-17T20:40:09.589Z,96.60
2017-10-17T20:42:37.852Z,96.60
2017-10-17T20:45:06.121Z,96.50
2017-10-17T20:47:34.205Z,96.60
2017-10-17T20:50:02.299Z,96.70
2017-10-17T20:52:30.397Z,96.80
2017-10-17T20:54:58.497Z,96.70
2017-10-17T20:57:26.632Z,96.60
2017-10-17T20:59:55.910Z,96.80
2017-10-17T21:02:24.206Z,96.80
2017-10-17T21:04:53.076Z,96.40
2017-10-17T21:07:21.179Z,96.40
2017-10-17T21:09:49.331Z,96.30
2017-10-17T21:19:02.866Z,96.60
2017-10-17T21:21:31.033Z,96.60
2017-10-17T21:23:59.115Z,96.70
2017-10-17T21:26:27.234Z,96.80
2017-10-17T21:28:55.312Z,96.70
2017-10-17T21:31:23.429Z,96.50
2017-10-17T21:33:51.512Z,96.40
2017-10-17T21:36:20.443Z,96.50
2017-10-17T21:38:48.569Z,96.50
2017-10-17T21:41:16.655Z,96.40
2017-10-17T21:43:44.761Z,96.60
2017-10-17T21:46:12.891Z,96.50
2017-10-17T21:48:40.996Z,96.90
2017-10-17T21:51:09.101Z,96.90
2017-10-17T21:53:37.950Z,96.20
2017-10-17T21:56:06.195Z,96.20
2017-10-17T21:58:34.278Z,96.50
2017-10-17T22:01:03.329Z,96.70
2017-10-17T22:03:32.684Z,96.10
2017-10-17T22:06:00.768Z,96.10
2017-10-17T22:08:28.876Z,96.80
2017-10-17T22:10:57.779Z,96.70
2017-10-17T22:13:25.891Z,96.60
2017-10-17T22:15:53.986Z,97.00
2017-10-17T22:18:22.073Z,96.80
2017-10-17T22:20:50.185Z,96.80
2017-10-17T22:23:18.291Z,96.80
2017-10-17T22:25:46.401Z,96.80
2017-10-17T22:28:14.514Z,97.20
2017-10-17T22:30:42.608Z,96.90
2017-10-17T22:33:11.133Z,96.90
2017-10-17T22:35:40.002Z,96.90
2017-10-17T22:38:08.104Z,96.90
2017-10-17T22:40:36.208Z,96.90
2017-10-17T22:43:04.296Z,97.00
2017-10-17T22:45:32.396Z,97.00
2017-10-17T22:48:00.528Z,96.90
2017-10-17T22:50:28.627Z,97.00
2017-10-17T22:52:57.191Z,97.00
2017-10-17T22:55:25.301Z,96.70
2017-10-17T22:57:53.557Z,96.60
2017-10-17T23:00:21.679Z,96.80
2017-10-17T23:02:49.971Z,96.70
2017-10-17T23:05:18.107Z,96.70
2017-10-17T23:07:46.973Z,96.60
2017-10-17T23:10:15.093Z,96.60
2017-10-17T23:12:43.331Z,96.70
2017-10-17T23:15:12.740Z,96.80
2017-10-17T23:17:58.514Z,96.60
2017-10-17T23:20:36.291Z,96.50
2017-10-17T23:23:04.368Z,96.60
2017-10-17T23:25:32.507Z,96.40
2017-10-17T23:28:00.899Z,96.40
2017-10-17T23:30:29.271Z,96.20
2017-10-17T23:32:59.032Z,96.60
2017-10-17T23:35:27.424Z,96.60
2017-10-17T23:37:56.395Z,96.30
2017-10-17T23:40:25.507Z,96.40
2017-10-17T23:42:54.387Z,96.60
2017-10-17T23:45:22.476Z,96.30
2017-10-17T23:47:51.331Z,96.10
2017-10-17T23:50:19.500Z,96.10
2017-10-17T23:52:47.703Z,95.80
2017-10-17T23:55:15.805Z,96.10
2017-10-17T23:57:43.899Z,95.90
